createdAt,value
2018-01-16T00:02:00.315Z,17.70
2018-01-16T00:04:28.223Z,17.80
2018-01-16T00:06:57.082Z,17.80
2018-01-16T00:09:25.165Z,17.80
2018-01-16T00:11:53.107Z,17.70
2018-01-16T00:14:21.143Z,17.50
2018-01-16T00:16:49.134Z,17.60
2018-01-16T00:19:17.051Z,17.50
2018-01-16T00:21:45.133Z,17.50
2018-01-16T00:24:13.799Z,17.50
2018-01-16T00:26:41.726Z,17.50
2018-01-16T00:29:09.789Z,17.40
2018-01-16T00:31:37.741Z,17.40
2018-01-16T00:34:06.383Z,17.30
2018-01-16T00:36:34.478Z,17.30
2018-01-16T00:39:02.416Z,17.40
2018-01-16T00:41:30.325Z,17.30
2018-01-16T00:43:58.359Z,17.40
2018-01-16T00:46:26.342Z,17.30
2018-01-16T00:48:54.259Z,17.20
2018-01-16T00:51:23.035Z,17.20
2018-01-16T00:53:51.687Z,17.10
2018-01-16T00:56:19.619Z,17.10
2018-01-16T00:58:47.681Z,17.00
2018-01-16T01:01:15.606Z,16.90
2018-01-16T01:03:43.529Z,16.90
2018-01-16T01:06:11.653Z,16.90
2018-01-16T01:08:39.559Z,16.80
2018-01-16T01:11:08.357Z,16.80
2018-01-16T01:13:36.390Z,16.70
2018-01-16T01:16:04.312Z,16.70
2018-01-16T01:18:32.311Z,16.70
2018-01-16T01:21:00.377Z,16.60
2018-01-16T01:23:28.303Z,16.60
2018-01-16T01:25:57.010Z,16.60
2018-01-16T01:28:25.063Z,16.60
2018-01-16T01:30:53.735Z,16.50
2018-01-16T01:33:22.395Z,16.50
2018-01-16T01:35:50.493Z,16.50
2018-01-16T01:38:19.151Z,16.30
2018-01-16T01:40:47.085Z,16.30
2018-01-16T01:43:15.217Z,16.30
2018-01-16T01:45:43.227Z,16.20
2018-01-16T01:48:11.144Z,16.10
2018-01-16T01:50:39.192Z,16.20
2018-01-16T01:53:07.108Z,16.20
2018-01-16T01:55:35.769Z,16.20
2018-01-16T01:58:03.831Z,16.20
2018-01-16T02:00:31.757Z,16.10
2018-01-16T02:02:59.675Z,16.00
2018-01-16T02:05:27.713Z,16.00
2018-01-16T02:07:55.610Z,16.10
2018-01-16T02:10:23.542Z,16.00
2018-01-16T02:12:51.735Z,15.90
2018-01-16T02:15:19.684Z,16.00
2018-01-16T02:17:47.595Z,15.80
2018-01-16T02:20:15.671Z,15.90
2018-01-16T02:22:43.606Z,15.90
2018-01-16T02:25:11.546Z,15.90
2018-01-16T02:27:40.324Z,15.90
2018-01-16T02:30:08.266Z,15.90
2018-01-16T02:32:36.219Z,15.80
2018-01-16T02:35:04.288Z,15.80
2018-01-16T02:37:32.256Z,15.80
2018-01-16T02:40:00.183Z,15.80
2018-01-16T02:42:29.003Z,15.90
2018-01-16T02:44:57.031Z,15.90
2018-01-16T02:47:25.207Z,15.80
2018-01-16T02:49:53.384Z,15.90
2018-01-16T02:52:21.423Z,15.90
2018-01-16T02:54:49.434Z,15.80
2018-01-16T02:57:17.517Z,15.90
2018-01-16T02:59:46.240Z,16.00
2018-01-16T03:02:14.218Z,15.90
2018-01-16T03:04:42.337Z,16.00
2018-01-16T03:07:10.363Z,16.00
2018-01-16T03:09:38.292Z,16.00
2018-01-16T03:12:07.105Z,16.10
2018-01-16T03:14:40.864Z,16.10
2018-01-16T03:17:09.664Z,16.00
2018-01-16T03:19:37.617Z,16.10
2018-01-16T03:22:05.565Z,16.20
2018-01-16T03:24:33.618Z,16.20
2018-01-16T03:27:01.678Z,16.30
2018-01-16T03:29:29.610Z,16.20
2018-01-16T03:31:57.647Z,16.30
2018-01-16T03:34:25.568Z,16.30
2018-01-16T03:36:54.316Z,16.40
2018-01-16T03:39:22.377Z,16.30
2018-01-16T03:41:50.275Z,16.40
2018-01-16T03:44:18.213Z,16.60
2018-01-16T03:46:46.304Z,16.60
2018-01-16T03:49:14.237Z,16.70
2018-01-16T03:51:42.161Z,16.80
2018-01-16T03:54:10.215Z,16.90
2018-01-16T03:56:38.129Z,17.10
2018-01-16T03:59:06.849Z,18.50
2018-01-16T04:01:34.905Z,18.40
2018-01-16T04:04:02.826Z,19.30
2018-01-16T04:06:30.779Z,19.90
2018-01-16T04:08:58.823Z,20.50
2018-01-16T04:11:26.757Z,21.10
2018-01-16T04:13:54.691Z,21.30
2018-01-16T04:16:22.975Z,20.50
2018-01-16T04:18:50.925Z,20.00
2018-01-16T04:21:18.874Z,19.50
2018-01-16T04:23:46.923Z,19.20
2018-01-16T04:26:15.663Z,18.90
2018-01-16T04:28:43.589Z,18.90
2018-01-16T04:31:12.396Z,19.10
2018-01-16T04:33:40.317Z,19.10
2018-01-16T04:36:08.232Z,19.00
2018-01-16T04:38:37.049Z,19.30
2018-01-16T04:41:05.146Z,19.20
2018-01-16T04:43:33.075Z,19.30
2018-01-16T04:46:01.114Z,19.30
2018-01-16T04:48:29.797Z,19.80
2018-01-16T04:50:57.712Z,19.80
2018-01-16T04:53:25.776Z,19.80
2018-01-16T04:55:53.695Z,20.00
2018-01-16T04:58:21.616Z,20.20
2018-01-16T05:00:49.667Z,20.80
2018-01-16T05:03:18.315Z,21.40
2018-01-16T05:05:46.243Z,21.40
2018-01-16T05:08:14.295Z,21.40
2018-01-16T05:10:42.973Z,21.00
2018-01-16T05:13:11.633Z,21.00
2018-01-16T05:15:39.707Z,20.90
2018-01-16T05:18:07.755Z,21.20
2018-01-16T05:20:35.827Z,21.40
2018-01-16T05:23:03.860Z,21.50
2018-01-16T05:25:32.518Z,21.60
2018-01-16T05:28:00.466Z,21.60
2018-01-16T05:30:28.516Z,21.70
2018-01-16T05:32:56.421Z,21.80
2018-01-16T05:35:24.331Z,21.90
2018-01-16T05:37:53.103Z,22.20
2018-01-16T05:40:21.026Z,22.20
2018-01-16T05:42:49.201Z,22.30
2018-01-16T05:45:17.239Z,22.30
2018-01-16T05:47:45.912Z,22.70
2018-01-16T05:50:14.701Z,22.90
2018-01-16T05:52:43.655Z,22.80
2018-01-16T05:55:11.561Z,22.80
2018-01-16T05:57:40.299Z,22.90
2018-01-16T06:00:08.327Z,22.90
2018-01-16T06:02:36.963Z,23.10
2018-01-16T06:05:04.910Z,23.10
2018-01-16T06:07:32.982Z,23.20
2018-01-16T06:10:00.906Z,23.40
2018-01-16T06:12:28.800Z,23.40
2018-01-16T06:14:57.585Z,24.20
2018-01-16T06:17:26.353Z,24.40
2018-01-16T06:19:54.256Z,24.40
2018-01-16T06:22:23.190Z,24.40
2018-01-16T06:24:51.105Z,24.40
2018-01-16T06:27:20.985Z,24.20
2018-01-16T06:29:49.033Z,24.10
2018-01-16T06:32:17.011Z,24.10
2018-01-16T06:34:44.947Z,24.10
2018-01-16T06:37:13.723Z,24.20
2018-01-16T06:39:42.401Z,24.20
2018-01-16T06:42:11.063Z,24.20
2018-01-16T06:44:39.108Z,24.20
2018-01-16T06:47:07.061Z,24.20
2018-01-16T06:49:34.980Z,24.20
2018-01-16T06:52:03.053Z,24.30
2018-01-16T06:54:30.989Z,24.40
2018-01-16T06:56:58.985Z,24.60
2018-01-16T06:59:27.050Z,24.70
2018-01-16T07:01:54.990Z,24.80
2018-01-16T07:04:22.924Z,24.80
2018-01-16T07:06:51.804Z,24.70
2018-01-16T07:09:20.002Z,24.70
2018-01-16T07:11:48.664Z,24.80
2018-01-16T07:14:16.598Z,24.80
2018-01-16T07:16:44.571Z,24.80
2018-01-16T07:19:12.703Z,24.90
2018-01-16T07:21:41.387Z,25.10
2018-01-16T07:24:10.183Z,25.00
2018-01-16T07:26:38.933Z,25.00
2018-01-16T07:29:07.010Z,25.00
2018-01-16T07:31:34.907Z,25.10
2018-01-16T07:34:03.730Z,25.10
2018-01-16T07:36:31.834Z,25.10
2018-01-16T07:38:59.799Z,25.10
2018-01-16T07:41:28.481Z,25.10
2018-01-16T07:43:56.543Z,25.10
2018-01-16T07:46:24.492Z,25.10
2018-01-16T07:48:55.174Z,25.30
2018-01-16T07:51:23.219Z,25.30
2018-01-16T07:53:51.141Z,25.30
2018-01-16T07:56:19.884Z,25.40
2018-01-16T07:58:47.982Z,25.30
2018-01-16T08:01:15.902Z,25.40
2018-01-16T08:03:43.878Z,25.40
2018-01-16T08:06:11.986Z,25.40
2018-01-16T08:08:39.919Z,25.40
2018-01-16T08:11:07.920Z,25.40
2018-01-16T08:13:36.021Z,25.40
2018-01-16T08:16:04.793Z,25.40
2018-01-16T08:18:33.225Z,25.40
2018-01-16T08:21:01.300Z,25.40
2018-01-16T08:23:29.231Z,25.40
2018-01-16T08:25:57.383Z,25.50
2018-01-16T08:28:25.439Z,25.60
2018-01-16T08:30:53.433Z,25.50
2018-01-16T08:33:21.357Z,25.60
2018-01-16T08:35:49.480Z,25.70
2018-01-16T08:38:17.654Z,25.60
2018-01-16T08:40:45.830Z,25.70
2018-01-16T08:43:15.319Z,25.60
2018-01-16T08:45:43.643Z,25.80
2018-01-16T08:48:12.435Z,25.90
2018-01-16T08:50:41.613Z,26.00
2018-01-16T08:53:10.081Z,26.00
2018-01-16T08:55:39.960Z,26.10
2018-01-16T08:58:11.152Z,26.10
2018-01-16T09:00:39.187Z,26.10
2018-01-16T09:03:07.378Z,26.00
2018-01-16T09:05:37.720Z,26.00
2018-01-16T09:08:05.694Z,26.00
2018-01-16T09:10:33.736Z,26.10
2018-01-16T09:13:01.796Z,26.00
2018-01-16T09:15:29.704Z,25.90
2018-01-16T09:17:58.966Z,25.90
2018-01-16T09:20:27.928Z,25.90
2018-01-16T09:22:57.142Z,26.10
2018-01-16T09:25:26.556Z,26.00
2018-01-16T09:27:55.110Z,26.10
2018-01-16T09:30:24.002Z,26.10
2018-01-16T09:32:55.020Z,26.30
2018-01-16T09:35:23.620Z,26.30
2018-01-16T09:37:51.786Z,26.50
2018-01-16T09:40:19.712Z,26.60
2018-01-16T09:42:47.778Z,26.40
2018-01-16T09:45:15.722Z,26.30
2018-01-16T09:47:44.407Z,26.20
2018-01-16T09:50:12.495Z,26.20
2018-01-16T09:52:41.189Z,26.20
2018-01-16T09:55:09.130Z,26.20
2018-01-16T09:57:37.303Z,26.20
2018-01-16T10:00:05.253Z,26.30
2018-01-16T10:02:33.181Z,26.30
2018-01-16T10:05:01.227Z,26.20
2018-01-16T10:07:29.883Z,26.00
2018-01-16T10:09:57.799Z,26.00
2018-01-16T10:12:26.609Z,26.10
2018-01-16T10:14:54.538Z,26.10
2018-01-16T10:17:22.581Z,26.10
2018-01-16T10:19:50.640Z,26.00
2018-01-16T10:22:18.564Z,25.90
2018-01-16T10:24:47.236Z,26.00
2018-01-16T10:27:15.340Z,26.00
2018-01-16T10:29:43.395Z,26.00
2018-01-16T10:32:12.061Z,26.00
2018-01-16T10:34:40.129Z,26.00
2018-01-16T10:37:08.186Z,26.00
2018-01-16T10:39:36.114Z,25.90
2018-01-16T10:42:04.175Z,25.90
2018-01-16T10:44:32.844Z,26.00
2018-01-16T10:47:00.898Z,25.90
2018-01-16T10:49:29.005Z,25.90
2018-01-16T10:51:56.968Z,25.80
2018-01-16T10:54:25.624Z,25.80
2018-01-16T10:56:53.730Z,25.70
2018-01-16T10:59:22.427Z,25.60
2018-01-16T11:01:51.085Z,25.50
2018-01-16T11:04:19.138Z,25.50
2018-01-16T11:06:47.115Z,25.50
2018-01-16T11:09:15.062Z,25.50
2018-01-16T11:11:43.145Z,25.50
2018-01-16T11:14:11.059Z,25.60
2018-01-16T11:16:40.829Z,25.50
2018-01-16T11:19:08.890Z,25.40
2018-01-16T11:21:36.835Z,25.40
2018-01-16T11:24:04.749Z,25.50
2018-01-16T11:26:32.856Z,25.40
2018-01-16T11:29:01.539Z,25.30
2018-01-16T11:31:29.601Z,25.20
2018-01-16T11:33:57.663Z,25.20
2018-01-16T11:36:25.634Z,25.30
2018-01-16T11:38:53.598Z,25.20
2018-01-16T11:41:21.663Z,25.10
2018-01-16T11:43:49.601Z,25.10
2018-01-16T11:46:17.613Z,25.10
2018-01-16T11:48:45.711Z,25.20
2018-01-16T11:51:14.521Z,25.10
2018-01-16T11:53:43.179Z,25.10
2018-01-16T11:56:11.361Z,25.10
2018-01-16T11:58:39.293Z,25.30
2018-01-16T12:01:07.281Z,25.40
2018-01-16T12:03:35.469Z,25.30
2018-01-16T12:06:03.649Z,25.20
2018-01-16T12:08:31.579Z,25.00
2018-01-16T12:10:59.674Z,25.00
2018-01-16T12:13:27.614Z,24.80
2018-01-16T12:15:55.570Z,24.80
2018-01-16T12:18:23.662Z,24.80
2018-01-16T12:20:51.592Z,24.80
2018-01-16T12:23:20.254Z,24.60
2018-01-16T12:25:48.430Z,24.60
2018-01-16T12:28:16.483Z,24.60
2018-01-16T12:30:44.417Z,24.60
2018-01-16T12:33:12.617Z,24.60
2018-01-16T12:35:40.621Z,24.40
2018-01-16T12:38:08.657Z,24.40
2018-01-16T12:40:36.709Z,24.40
2018-01-16T12:43:04.627Z,24.40
2018-01-16T12:45:32.699Z,24.30
2018-01-16T12:48:00.794Z,24.10
2018-01-16T12:50:29.481Z,24.10
2018-01-16T12:52:58.151Z,24.00
2018-01-16T12:55:26.338Z,24.00
2018-01-16T12:57:54.273Z,24.00
2018-01-16T13:00:22.323Z,24.00
2018-01-16T13:02:50.375Z,23.90
2018-01-16T13:05:18.442Z,23.80
2018-01-16T13:07:47.155Z,23.80
2018-01-16T13:10:15.222Z,23.70
2018-01-16T13:12:43.202Z,23.70
2018-01-16T13:15:11.157Z,23.70
2018-01-16T13:17:39.958Z,23.60
2018-01-16T13:20:07.894Z,23.60
2018-01-16T13:22:36.562Z,23.50
2018-01-16T13:25:04.660Z,23.50
2018-01-16T13:27:33.337Z,23.50
2018-01-16T13:30:01.337Z,23.50
2018-01-16T13:32:29.391Z,23.40
2018-01-16T13:34:58.180Z,23.30
2018-01-16T13:37:26.918Z,23.30
2018-01-16T13:39:55.010Z,23.30
2018-01-16T13:42:22.939Z,23.30
2018-01-16T13:44:50.874Z,23.20
2018-01-16T13:47:19.692Z,23.20
2018-01-16T13:49:47.604Z,23.10
2018-01-16T13:52:15.561Z,23.10
2018-01-16T13:54:43.651Z,23.10
2018-01-16T13:57:11.596Z,23.00
2018-01-16T13:59:39.507Z,23.00
2018-01-16T14:02:07.613Z,23.00
2018-01-16T14:04:36.268Z,22.90
2018-01-16T14:07:04.308Z,22.90
2018-01-16T14:09:32.385Z,22.90
2018-01-16T14:12:00.302Z,22.80
2018-01-16T14:14:28.955Z,22.90
2018-01-16T14:16:57.152Z,22.90
2018-01-16T14:19:25.830Z,22.80
2018-01-16T14:21:53.778Z,22.80
2018-01-16T14:24:21.838Z,22.80
2018-01-16T14:26:49.813Z,22.80
2018-01-16T14:29:17.746Z,22.80
2018-01-16T14:31:45.814Z,22.70
2018-01-16T14:34:14.481Z,22.70
2018-01-16T14:36:42.603Z,22.70
2018-01-16T14:39:10.671Z,22.70
2018-01-16T14:41:38.602Z,22.70
2018-01-16T14:44:07.279Z,22.60
2018-01-16T14:46:35.433Z,22.60
2018-01-16T14:49:03.340Z,22.60
2018-01-16T14:51:32.045Z,22.50
2018-01-16T14:54:00.108Z,22.50
2018-01-16T14:56:28.966Z,22.60
2018-01-16T14:58:56.907Z,22.60
2018-01-16T15:01:24.986Z,22.60
2018-01-16T15:03:52.904Z,22.60
2018-01-16T15:06:21.632Z,22.50
2018-01-16T15:08:49.690Z,22.50
2018-01-16T15:11:17.616Z,22.50
2018-01-16T15:13:45.577Z,22.40
2018-01-16T15:16:13.748Z,22.40
2018-01-16T15:18:41.672Z,22.40
2018-01-16T15:21:09.605Z,22.40
2018-01-16T15:23:37.661Z,22.40
2018-01-16T15:26:05.617Z,22.40
2018-01-16T15:28:33.550Z,22.40
2018-01-16T15:31:01.733Z,22.40
2018-01-16T15:33:29.637Z,22.40
2018-01-16T15:35:57.589Z,22.30
2018-01-16T15:38:25.785Z,22.30
2018-01-16T15:40:53.756Z,22.40
2018-01-16T15:43:24.482Z,22.20
2018-01-16T15:45:52.739Z,22.10
2018-01-16T15:48:24.351Z,22.10
2018-01-16T15:50:52.388Z,22.20
2018-01-16T15:53:24.740Z,22.00
2018-01-16T15:55:56.506Z,22.10
2018-01-16T15:58:24.685Z,22.20
2018-01-16T16:00:52.627Z,22.10
2018-01-16T16:03:20.555Z,22.10
2018-01-16T16:05:48.577Z,22.00
2018-01-16T16:08:16.513Z,22.00
2018-01-16T16:10:45.181Z,22.10
2018-01-16T16:13:13.253Z,22.00
2018-01-16T16:15:41.199Z,22.00
2018-01-16T16:18:09.158Z,22.00
2018-01-16T16:20:37.204Z,22.10
2018-01-16T16:23:05.856Z,22.00
2018-01-16T16:25:33.784Z,22.00
2018-01-16T16:28:01.882Z,22.00
2018-01-16T16:43:21.123Z,22.20
2018-01-16T16:45:49.886Z,22.10
2018-01-16T16:48:17.808Z,22.00
2018-01-16T16:50:45.856Z,21.90
2018-01-16T16:53:13.782Z,21.90
2018-01-16T16:55:42.525Z,21.80
2018-01-16T16:58:10.579Z,21.80
2018-01-16T17:00:38.579Z,21.90
2018-01-16T17:03:06.544Z,21.90
2018-01-16T17:05:34.665Z,21.80
2018-01-16T17:08:02.618Z,21.80
2018-01-16T17:10:31.293Z,21.80
2018-01-16T17:12:59.373Z,21.70
2018-01-16T17:15:28.079Z,21.60
2018-01-16T17:17:56.757Z,21.70
2018-01-16T17:20:25.833Z,21.60
2018-01-16T17:22:53.789Z,21.60
2018-01-16T17:25:21.728Z,21.60
2018-01-16T17:27:49.893Z,21.60
2018-01-16T17:30:17.821Z,21.70
2018-01-16T17:32:45.773Z,21.70
2018-01-16T17:35:13.833Z,21.70
2018-01-16T17:37:41.778Z,21.70
2018-01-16T17:40:09.745Z,21.60
2018-01-16T17:42:37.812Z,21.70
2018-01-16T17:45:06.665Z,21.70
2018-01-16T17:47:34.598Z,21.70
2018-01-16T17:50:02.646Z,21.70
2018-01-16T17:52:31.310Z,21.70
2018-01-16T17:54:59.251Z,21.70
2018-01-16T17:57:27.325Z,21.60
2018-01-16T17:59:55.266Z,21.50
2018-01-16T18:02:23.219Z,21.50
2018-01-16T18:04:51.343Z,21.50
2018-01-16T18:07:19.680Z,21.50
2018-01-16T18:09:47.751Z,21.50
2018-01-16T18:12:15.965Z,21.50
2018-01-16T18:14:44.235Z,21.60
2018-01-16T18:17:12.372Z,21.60
2018-01-16T18:19:40.458Z,21.60
2018-01-16T18:22:08.413Z,21.60
2018-01-16T18:24:36.362Z,21.50
2018-01-16T18:27:05.243Z,21.50
2018-01-16T18:29:33.206Z,21.50
2018-01-16T18:32:01.146Z,21.60
2018-01-16T18:34:29.191Z,21.60
2018-01-16T18:36:57.187Z,21.60
2018-01-16T18:39:25.095Z,21.50
2018-01-16T18:41:53.148Z,21.50
2018-01-16T18:44:21.079Z,21.40
2018-01-16T18:46:49.193Z,21.50
2018-01-16T18:49:17.244Z,21.50
2018-01-16T18:51:46.354Z,21.50
2018-01-16T18:54:14.290Z,21.50
2018-01-16T18:56:42.404Z,21.50
2018-01-16T18:59:10.355Z,21.30
2018-01-16T19:01:38.281Z,21.30
2018-01-16T19:04:07.068Z,21.20
2018-01-16T19:06:35.835Z,21.30
2018-01-16T19:09:04.061Z,21.30
2018-01-16T19:11:32.108Z,21.40
2018-01-16T19:14:00.797Z,21.40
2018-01-16T19:16:29.553Z,21.40
2018-01-16T19:18:57.499Z,21.40
2018-01-16T19:21:25.412Z,21.40
2018-01-16T19:23:53.347Z,21.40
2018-01-16T19:26:21.438Z,21.40
2018-01-16T19:28:49.363Z,21.50
2018-01-16T19:31:17.314Z,21.50
2018-01-16T19:33:46.115Z,21.50
2018-01-16T19:36:14.125Z,21.50
2018-01-16T19:38:42.032Z,21.50
2018-01-16T19:41:10.838Z,21.40
2018-01-16T19:43:39.494Z,21.30
2018-01-16T19:46:07.416Z,21.30
2018-01-16T19:48:35.624Z,21.40
2018-01-16T19:51:03.562Z,21.50
2018-01-16T19:53:31.479Z,21.50
2018-01-16T19:55:59.641Z,21.40
2018-01-16T19:58:27.616Z,21.50
2018-01-16T20:00:55.536Z,21.30
2018-01-16T20:03:23.593Z,21.50
2018-01-16T20:05:52.346Z,21.50
2018-01-16T20:08:20.283Z,21.50
2018-01-16T20:10:48.340Z,21.50
2018-01-16T20:13:16.258Z,21.50
2018-01-16T20:15:44.171Z,21.50
2018-01-16T20:18:12.224Z,21.50
2018-01-16T20:20:40.879Z,21.40
2018-01-16T20:23:08.807Z,21.40
2018-01-16T20:25:36.878Z,21.40
2018-01-16T20:28:04.791Z,21.40
2018-01-16T20:30:32.745Z,21.30
2018-01-16T20:33:00.789Z,21.40
2018-01-16T20:35:28.792Z,21.30
2018-01-16T20:37:56.779Z,21.30
2018-01-16T20:40:24.839Z,21.30
2018-01-16T20:42:52.761Z,21.30
2018-01-16T20:45:20.721Z,21.20
2018-01-16T20:47:49.509Z,21.20
2018-01-16T20:50:18.317Z,21.20
2018-01-16T20:52:46.238Z,21.10
2018-01-16T20:55:14.289Z,21.20
2018-01-16T20:57:42.234Z,21.20
2018-01-16T21:00:10.177Z,21.10
2018-01-16T21:02:38.948Z,21.10
2018-01-16T21:05:06.882Z,21.00
2018-01-16T21:07:34.821Z,21.10
2018-01-16T21:10:03.645Z,21.00
2018-01-16T21:12:31.559Z,20.90
2018-01-16T21:14:59.481Z,21.10
2018-01-16T21:17:27.528Z,21.10
2018-01-16T21:19:56.187Z,21.10
2018-01-16T21:22:24.129Z,21.00
2018-01-16T21:24:52.213Z,21.00
2018-01-16T21:27:20.137Z,21.00
2018-01-16T21:29:48.047Z,21.00
2018-01-16T21:32:16.743Z,21.00
2018-01-16T21:34:44.663Z,21.00
2018-01-16T21:37:12.621Z,20.90
2018-01-16T21:39:41.404Z,20.80
2018-01-16T21:42:10.095Z,20.90
2018-01-16T21:44:38.770Z,20.80
2018-01-16T21:47:07.649Z,20.80
2018-01-16T21:49:35.585Z,20.80
2018-01-16T21:52:03.645Z,20.90
2018-01-16T21:54:31.695Z,20.80
2018-01-16T21:56:59.697Z,20.80
2018-01-16T21:59:27.633Z,20.80
2018-01-16T22:01:56.417Z,20.80
2018-01-16T22:04:25.095Z,20.90
2018-01-16T22:06:53.763Z,20.90
2018-01-16T22:09:21.833Z,20.90
2018-01-16T22:11:49.785Z,20.90
2018-01-16T22:14:17.707Z,21.00
2018-01-16T22:16:46.551Z,20.90
2018-01-16T22:19:14.471Z,20.80
2018-01-16T22:21:43.146Z,20.90
2018-01-16T22:24:11.952Z,21.00
2018-01-16T22:26:39.968Z,21.00
2018-01-16T22:29:07.893Z,21.00
2018-01-16T22:31:35.965Z,20.90
2018-01-16T22:34:03.973Z,20.70
2018-01-16T22:36:31.945Z,20.70
2018-01-16T22:38:59.986Z,20.70
2018-01-16T22:41:27.906Z,20.80
2018-01-16T22:43:55.826Z,20.80
2018-01-16T22:46:24.712Z,20.90
2018-01-16T22:48:52.643Z,20.80
2018-01-16T22:51:20.589Z,20.90
2018-01-16T22:53:48.798Z,20.90
2018-01-16T22:56:16.845Z,21.00
2018-01-16T22:58:44.797Z,21.00
2018-01-16T23:01:13.105Z,21.00
2018-01-16T23:03:41.020Z,21.00
2018-01-16T23:06:09.157Z,21.00
2018-01-16T23:08:37.217Z,20.90
2018-01-16T23:11:05.152Z,20.90
2018-01-16T23:13:33.076Z,20.90
2018-01-16T23:16:01.894Z,20.80
2018-01-16T23:18:29.845Z,20.80
2018-01-16T23:20:58.492Z,20.80
2018-01-16T23:23:26.527Z,20.80
2018-01-16T23:25:54.450Z,20.70
2018-01-16T23:28:22.343Z,20.70
2018-01-16T23:30:51.167Z,20.80
2018-01-16T23:33:19.064Z,20.80
2018-01-16T23:35:47.145Z,20.80
2018-01-16T23:38:15.217Z,20.80
2018-01-16T23:40:43.157Z,20.70
2018-01-16T23:43:11.067Z,20.70
2018-01-16T23:45:39.149Z,20.80
2018-01-16T23:48:07.051Z,20.80
2018-01-16T23:50:34.959Z,20.70
2018-01-16T23:53:03.006Z,20.70
2018-01-16T23:55:31.073Z,20.70
2018-01-16T23:57:58.995Z,20.80
